Coulterville, Illinois
Current Conditions -  °F | °C
As of 6:15 AM on Saturday 20 Dec 2014 (Local Time) from KSAR Reporting Station
Overcast Overcast  
Wind Chill: 33°   Ceiling: 3300
Heat Index: 33°   Visibility: 10mi
Dew Point: 29°   Wind: 3mph
Humidity: 88%   Direction: 110°ESE
Pressure: 30.27"   Gusts: NA
Location:  38.19°N, 89.61°W
Report Text: KSAR 201215Z AUTO 11003KT 10SM OVC033 00/M01 A3027 RMK AO2 T00031015
Loading
Personal Weather Stations






























Interactive Weather Map New forecast layout! Learn more

10-Day Weather Forecast

Advertisements
Track Severe Weather on mobile